Terminal Aerodrome Forecast
Issued by NWS

Home | Current Version | Previous Version | Text Only | Print | Product List | Glossary On
Versions: 1 2 3 4 5 6 7 8 9 10 11 12 13 14 15 16 17 18 19 20 21 22 23 24 25 26 27 28 29 30 31 32 33 34 35 36
000
FTUS42 KRAH 272336
TAFINT
TAF
KINT 272336Z 2800/2824 22006KT P6SM FEW050 BKN250
     FM281200 21003KT P6SM SCT010 BKN020
     FM281600 26005KT P6SM SCT030 BKN040 PROB30 2818/2824 VRB10G25KT
      2SM TSRA BKN025CB=

USA.gov is the U.S. government's official web portal to all federal, state and local government web resources and services.